createdAt,value
2019-05-19T00:00:26.914Z,38.73
2019-05-19T00:03:00.293Z,37.93
2019-05-19T00:05:32.940Z,30.60
2019-05-19T00:08:07.738Z,35.23
2019-05-19T00:10:41.575Z,34.07
2019-05-19T00:13:15.194Z,35.40
2019-05-19T00:15:49.182Z,31.10
2019-05-19T00:18:21.354Z,32.80
2019-05-19T00:20:54.948Z,32.50
2019-05-19T00:23:27.796Z,36.87
2019-05-19T00:25:59.781Z,31.43
2019-05-19T00:28:33.245Z,28.93
2019-05-19T00:31:06.784Z,26.87
2019-05-19T00:33:39.966Z,27.80
2019-05-19T00:36:13.250Z,30.83
2019-05-19T00:38:46.317Z,30.20
2019-05-19T00:41:21.542Z,26.13
2019-05-19T00:43:55.312Z,30.53
2019-05-19T00:46:31.015Z,26.37
2019-05-19T00:49:09.110Z,35.17
2019-05-19T00:51:46.334Z,37.87
2019-05-19T00:54:19.143Z,38.77
2019-05-19T00:56:53.411Z,38.43
2019-05-19T00:59:27.329Z,40.90
2019-05-19T01:02:00.612Z,40.13
2019-05-19T01:04:33.424Z,37.57
2019-05-19T01:07:11.472Z,37.33
2019-05-19T01:09:57.572Z,32.93
2019-05-19T01:12:31.185Z,33.37
2019-05-19T01:15:07.594Z,31.63
2019-05-19T01:17:40.570Z,33.03
2019-05-19T01:20:16.520Z,32.17
2019-05-19T01:22:50.965Z,32.73
2019-05-19T01:25:25.026Z,32.47
2019-05-19T01:27:58.019Z,30.63
2019-05-19T01:30:30.918Z,30.30
2019-05-19T01:33:02.647Z,29.70
2019-05-19T01:35:36.509Z,34.30
2019-05-19T01:38:08.704Z,29.67
2019-05-19T01:40:43.467Z,30.07
2019-05-19T01:43:20.080Z,36.93
2019-05-19T01:46:00.625Z,33.67
2019-05-19T01:48:35.661Z,31.57
2019-05-19T01:51:10.941Z,31.90
2019-05-19T01:53:43.023Z,32.90
2019-05-19T01:56:15.990Z,32.27
2019-05-19T01:58:58.555Z,34.20
2019-05-19T02:01:30.931Z,40.83
2019-05-19T02:04:04.626Z,35.40
2019-05-19T02:06:37.494Z,36.50
2019-05-19T02:09:10.282Z,38.53
2019-05-19T02:11:42.629Z,38.73
2019-05-19T02:14:15.294Z,38.60
2019-05-19T02:16:46.769Z,39.43
2019-05-19T02:19:19.938Z,40.67
2019-05-19T02:21:52.316Z,41.30
2019-05-19T02:24:24.582Z,45.13
2019-05-19T02:26:57.249Z,44.53
2019-05-19T02:29:30.156Z,49.10
2019-05-19T02:32:03.281Z,43.57
2019-05-19T02:34:36.120Z,44.10
2019-05-19T02:37:08.998Z,48.17
2019-05-19T02:39:40.892Z,46.33
2019-05-19T02:42:14.919Z,46.67
2019-05-19T02:44:50.409Z,43.67
2019-05-19T02:47:24.103Z,42.47
2019-05-19T02:49:57.798Z,44.50
2019-05-19T02:52:31.235Z,40.10
2019-05-19T02:55:04.777Z,41.17
2019-05-19T02:57:37.766Z,39.57
2019-05-19T03:00:10.199Z,42.63
2019-05-19T03:02:43.839Z,33.83
2019-05-19T03:05:15.751Z,33.27
2019-05-19T03:07:48.097Z,32.20
2019-05-19T03:10:21.183Z,33.40
2019-05-19T03:12:53.996Z,38.17
2019-05-19T03:15:26.506Z,31.93
2019-05-19T03:18:00.123Z,31.17
2019-05-19T03:20:31.586Z,31.73
2019-05-19T03:23:03.149Z,36.57
2019-05-19T03:25:35.167Z,31.43
2019-05-19T03:28:08.110Z,28.93
2019-05-19T03:30:57.778Z,31.23
2019-05-19T03:33:32.335Z,30.43
2019-05-19T03:36:05.024Z,35.20
2019-05-19T03:38:37.798Z,29.97
2019-05-19T03:41:09.845Z,34.50
2019-05-19T03:43:42.405Z,33.30
2019-05-19T03:46:15.208Z,32.33
2019-05-19T03:48:47.212Z,35.37
2019-05-19T03:51:30.319Z,37.63
2019-05-19T03:53:52.645Z,34.60
2019-05-19T03:56:24.220Z,39.67
2019-05-19T03:58:56.570Z,37.80
2019-05-19T04:01:28.965Z,41.90
2019-05-19T04:04:01.370Z,47.27
2019-05-19T04:06:33.767Z,56.03
2019-05-19T04:09:06.607Z,48.90
2019-05-19T04:11:39.160Z,49.27
2019-05-19T04:14:11.295Z,51.40
2019-05-19T04:16:42.772Z,50.20
2019-05-19T04:19:14.861Z,50.60
2019-05-19T04:21:49.283Z,57.87
2019-05-19T04:24:20.102Z,58.03
2019-05-19T04:26:52.051Z,57.57
2019-05-19T04:29:38.747Z,52.87
2019-05-19T04:32:08.396Z,55.97
2019-05-19T04:34:40.252Z,46.73
2019-05-19T04:37:12.686Z,41.80
2019-05-19T04:39:44.114Z,42.63
2019-05-19T04:42:16.166Z,36.70
2019-05-19T04:44:48.000Z,34.03
2019-05-19T04:47:19.891Z,33.37
2019-05-19T04:49:52.901Z,32.30
2019-05-19T04:52:24.980Z,33.00
2019-05-19T04:54:56.835Z,34.20
2019-05-19T04:57:28.751Z,41.30
2019-05-19T05:00:01.956Z,33.97
2019-05-19T05:02:35.496Z,34.20
2019-05-19T05:05:09.951Z,31.57
2019-05-19T05:07:43.226Z,33.90
2019-05-19T05:10:16.028Z,32.47
2019-05-19T05:12:48.819Z,33.53
2019-05-19T05:15:21.183Z,31.23
2019-05-19T05:17:52.638Z,30.73
2019-05-19T05:20:26.430Z,31.23
2019-05-19T05:22:59.516Z,32.57
2019-05-19T05:25:32.435Z,30.57
2019-05-19T05:28:04.414Z,33.08
2019-05-19T05:30:36.342Z,34.83
2019-05-19T05:33:09.429Z,32.23
2019-05-19T05:35:43.932Z,37.77
2019-05-19T05:38:18.239Z,33.63
2019-05-19T05:40:50.522Z,34.97
2019-05-19T05:43:23.406Z,35.20
2019-05-19T05:45:56.635Z,38.03
2019-05-19T05:48:28.475Z,43.23
2019-05-19T05:51:00.186Z,41.63
2019-05-19T05:53:32.999Z,46.17
2019-05-19T05:56:06.152Z,45.33
2019-05-19T05:58:38.997Z,37.47
2019-05-19T06:01:10.834Z,32.97
2019-05-19T06:03:43.455Z,32.83
2019-05-19T06:06:16.129Z,28.33
2019-05-19T06:08:50.121Z,22.13
2019-05-19T06:11:24.190Z,22.73
2019-05-19T06:13:56.995Z,21.33
2019-05-19T06:16:30.410Z,22.10
2019-05-19T06:19:03.151Z,19.13
2019-05-19T06:21:35.159Z,24.07
2019-05-19T06:24:07.817Z,18.83
2019-05-19T06:26:40.808Z,18.73
2019-05-19T06:29:12.980Z,19.80
2019-05-19T06:31:46.150Z,24.20
2019-05-19T06:34:29.583Z,18.57
2019-05-19T06:37:03.347Z,21.03
2019-05-19T06:39:35.350Z,22.03
2019-05-19T06:42:07.307Z,18.73
2019-05-19T06:44:40.746Z,21.20
2019-05-19T06:47:14.408Z,22.37
2019-05-19T06:49:47.110Z,21.13
2019-05-19T06:52:20.154Z,23.60
2019-05-19T06:54:52.560Z,19.17
2019-05-19T06:57:32.420Z,23.10
2019-05-19T07:00:06.821Z,21.50
2019-05-19T07:02:40.356Z,26.07
2019-05-19T07:05:13.637Z,19.63
2019-05-19T07:07:46.315Z,27.40
2019-05-19T07:10:20.071Z,22.23
2019-05-19T07:12:53.744Z,22.77
2019-05-19T07:15:26.135Z,22.60
2019-05-19T07:18:03.198Z,23.60
2019-05-19T07:20:35.649Z,21.53
2019-05-19T07:23:08.927Z,21.43
2019-05-19T07:25:42.959Z,22.23
2019-05-19T07:28:15.555Z,25.77
2019-05-19T07:30:49.279Z,21.33
2019-05-19T07:33:31.935Z,22.17
2019-05-19T07:36:05.139Z,23.57
2019-05-19T07:38:37.126Z,24.50
2019-05-19T07:41:09.809Z,27.77
2019-05-19T07:43:43.227Z,27.73
2019-05-19T07:46:15.166Z,25.90
2019-05-19T07:48:48.839Z,23.20
2019-05-19T07:51:22.289Z,33.10
2019-05-19T07:53:54.648Z,25.77
2019-05-19T07:56:27.452Z,26.93
2019-05-19T07:59:02.483Z,28.73
2019-05-19T08:01:36.328Z,24.40
2019-05-19T08:04:09.752Z,26.83
2019-05-19T08:06:43.149Z,29.57
2019-05-19T08:09:15.713Z,25.67
2019-05-19T08:11:48.791Z,28.37
2019-05-19T08:14:22.146Z,31.07
2019-05-19T08:16:54.128Z,28.40
2019-05-19T08:19:26.567Z,28.77
2019-05-19T08:21:58.758Z,28.07
2019-05-19T08:24:31.839Z,31.63
2019-05-19T08:27:04.332Z,27.30
2019-05-19T08:29:37.299Z,28.53
2019-05-19T08:32:14.212Z,30.77
2019-05-19T08:34:47.674Z,27.67
2019-05-19T08:37:20.999Z,31.40
2019-05-19T08:39:53.469Z,29.33
2019-05-19T08:42:28.025Z,25.80
2019-05-19T08:45:01.512Z,28.03
2019-05-19T08:47:34.352Z,30.67
2019-05-19T08:50:06.766Z,34.47
2019-05-19T08:52:39.949Z,30.10
2019-05-19T08:55:15.172Z,28.37
2019-05-19T08:57:48.808Z,25.80
2019-05-19T09:00:22.622Z,28.00
2019-05-19T09:02:55.998Z,30.70
2019-05-19T09:05:29.956Z,31.83
2019-05-19T09:08:02.817Z,27.83
2019-05-19T09:10:35.370Z,25.97
2019-05-19T09:13:09.061Z,38.13
2019-05-19T09:15:43.477Z,74.57
2019-05-19T09:18:17.792Z,420.47
2019-05-19T09:20:51.623Z,892.53
2019-05-19T09:23:25.690Z,1727.73
2019-05-19T09:25:58.902Z,689.13
2019-05-19T09:28:35.409Z,67.53
2019-05-19T09:31:08.090Z,197.07
2019-05-19T09:33:42.589Z,69.60
2019-05-19T09:36:15.066Z,55.73
2019-05-19T09:38:49.307Z,43.63
2019-05-19T09:41:22.498Z,23.93
2019-05-19T09:43:55.900Z,26.57
2019-05-19T09:46:31.444Z,102.43
2019-05-19T09:49:21.146Z,25.57
2019-05-19T09:51:53.891Z,37.47
2019-05-19T09:54:27.337Z,36.47
2019-05-19T09:57:01.016Z,34.17
2019-05-19T09:59:34.463Z,21.23
2019-05-19T10:02:07.257Z,31.60
2019-05-19T10:04:40.439Z,23.77
2019-05-19T10:07:13.953Z,29.67
2019-05-19T10:10:08.192Z,40.97
2019-05-19T10:12:40.680Z,26.33
2019-05-19T10:15:16.029Z,19.33
2019-05-19T10:17:50.699Z,26.63
2019-05-19T10:20:30.148Z,30.10
2019-05-19T10:23:03.862Z,20.20
2019-05-19T10:25:36.691Z,16.73
2019-05-19T10:28:10.555Z,17.07
2019-05-19T10:30:43.375Z,30.40
2019-05-19T10:33:16.418Z,34.70
2019-05-19T10:35:51.344Z,16.77
2019-05-19T10:38:25.626Z,17.63
2019-05-19T10:40:59.096Z,13.17
2019-05-19T10:43:33.661Z,44.33
2019-05-19T10:46:06.603Z,16.23
2019-05-19T10:48:39.867Z,15.43
2019-05-19T10:51:12.534Z,16.10
2019-05-19T10:53:45.558Z,19.70
2019-05-19T10:56:19.225Z,18.10
2019-05-19T10:58:53.250Z,13.53
2019-05-19T11:01:27.053Z,19.07
2019-05-19T11:04:01.216Z,12.47
2019-05-19T11:06:34.383Z,17.37
2019-05-19T11:09:08.643Z,17.53
2019-05-19T11:11:42.718Z,15.80
2019-05-19T11:14:14.603Z,14.60
2019-05-19T11:16:46.974Z,17.03
2019-05-19T11:19:21.817Z,13.80
2019-05-19T11:21:55.897Z,13.07
2019-05-19T11:24:30.789Z,16.63
2019-05-19T11:27:03.371Z,11.50
2019-05-19T11:29:36.307Z,11.57
2019-05-19T11:32:12.127Z,11.57
2019-05-19T11:34:46.080Z,12.23
2019-05-19T11:37:19.575Z,14.90
2019-05-19T11:39:53.952Z,13.03
2019-05-19T11:42:29.148Z,12.07
2019-05-19T11:45:01.531Z,12.83
2019-05-19T11:47:35.594Z,13.00
2019-05-19T11:50:07.635Z,12.20
2019-05-19T11:52:40.076Z,12.10
2019-05-19T11:55:13.128Z,12.50
2019-05-19T11:57:46.538Z,22.23
2019-05-19T12:00:21.103Z,14.47
2019-05-19T12:02:53.960Z,13.10
2019-05-19T12:05:27.564Z,13.57
2019-05-19T12:08:01.141Z,11.90
2019-05-19T12:10:34.047Z,10.70
2019-05-19T12:13:08.475Z,13.30
2019-05-19T12:15:43.461Z,12.53
2019-05-19T12:18:16.538Z,12.23
2019-05-19T12:20:50.133Z,11.30
2019-05-19T12:23:22.751Z,13.17
2019-05-19T12:25:55.509Z,14.70
2019-05-19T12:28:28.943Z,13.20
2019-05-19T12:31:02.544Z,12.20
2019-05-19T12:33:35.063Z,11.30
2019-05-19T12:36:09.143Z,11.67
2019-05-19T12:38:42.880Z,13.20
2019-05-19T12:41:14.979Z,14.47
2019-05-19T12:43:48.584Z,13.60
2019-05-19T12:46:21.366Z,11.97
2019-05-19T12:48:55.296Z,12.67
2019-05-19T12:51:27.820Z,12.50
2019-05-19T12:54:00.709Z,16.53
2019-05-19T12:56:39.542Z,12.23
2019-05-19T12:59:09.336Z,10.60
2019-05-19T13:01:42.466Z,15.03
2019-05-19T13:04:16.067Z,14.57
2019-05-19T13:06:49.478Z,13.70
2019-05-19T13:09:23.495Z,12.47
2019-05-19T13:12:01.143Z,10.47
2019-05-19T13:14:34.075Z,12.47
2019-05-19T13:17:07.345Z,12.97
2019-05-19T13:19:41.796Z,11.27
2019-05-19T13:22:14.784Z,13.73
2019-05-19T13:24:47.786Z,8.63
2019-05-19T13:27:20.995Z,10.83
2019-05-19T13:29:54.470Z,12.13
2019-05-19T13:32:30.496Z,11.90
2019-05-19T13:35:02.398Z,16.70
2019-05-19T13:37:46.914Z,12.00
2019-05-19T13:40:30.303Z,13.10
2019-05-19T13:43:02.778Z,17.33
2019-05-19T13:45:35.510Z,10.30
2019-05-19T13:48:09.695Z,12.87
2019-05-19T13:50:43.259Z,13.77
2019-05-19T13:53:15.611Z,12.00
2019-05-19T13:55:49.923Z,15.23
2019-05-19T13:58:21.911Z,13.67
2019-05-19T14:00:55.707Z,11.67
2019-05-19T14:03:28.927Z,11.10
2019-05-19T14:06:04.102Z,10.53
2019-05-19T14:08:37.222Z,11.30
2019-05-19T14:11:09.315Z,11.63
2019-05-19T14:13:41.715Z,9.80
2019-05-19T14:16:15.519Z,10.63
2019-05-19T14:18:48.936Z,13.17
2019-05-19T14:21:21.842Z,11.70
2019-05-19T14:23:55.893Z,10.63
2019-05-19T14:26:28.635Z,9.07
2019-05-19T14:29:01.729Z,10.70
2019-05-19T14:31:35.681Z,9.67
2019-05-19T14:34:08.462Z,9.87
2019-05-19T14:36:41.506Z,8.83
2019-05-19T14:39:15.151Z,11.37
2019-05-19T14:41:53.942Z,11.53
2019-05-19T14:44:27.461Z,8.33
2019-05-19T14:47:07.081Z,12.10
2019-05-19T14:49:55.359Z,8.83
2019-05-19T14:52:30.644Z,11.27
2019-05-19T14:55:06.831Z,8.27
2019-05-19T14:57:44.846Z,15.53
2019-05-19T15:00:18.860Z,10.83
2019-05-19T15:02:53.716Z,14.03
2019-05-19T15:05:29.986Z,10.50
2019-05-19T15:08:03.719Z,10.53
2019-05-19T15:10:37.468Z,9.60
2019-05-19T15:13:09.939Z,80.50
2019-05-19T15:15:42.625Z,238.73
2019-05-19T15:18:16.028Z,62.97
2019-05-19T15:20:48.855Z,53.73
2019-05-19T15:23:22.339Z,33.83
2019-05-19T15:25:54.715Z,18.30
2019-05-19T15:28:31.087Z,280.87
2019-05-19T15:31:03.385Z,75.10
2019-05-19T15:33:39.020Z,49.13
2019-05-19T15:36:13.100Z,35.83
2019-05-19T15:38:46.902Z,21.27
2019-05-19T15:41:19.883Z,26.37
2019-05-19T15:43:54.345Z,14.10
2019-05-19T15:46:27.960Z,10.87
2019-05-19T15:49:02.526Z,11.23
2019-05-19T15:51:37.938Z,10.27
2019-05-19T15:54:12.069Z,11.03
2019-05-19T15:56:47.560Z,14.47
2019-05-19T15:59:24.635Z,15.77
2019-05-19T16:01:59.742Z,19.53
2019-05-19T16:04:34.725Z,21.27
2019-05-19T16:07:13.126Z,24.00
2019-05-19T16:09:48.052Z,25.23
2019-05-19T16:12:23.159Z,27.77
2019-05-19T16:15:00.012Z,34.57
2019-05-19T16:17:33.215Z,37.27
2019-05-19T16:20:06.468Z,36.07
2019-05-19T16:22:41.744Z,31.77
2019-05-19T16:25:15.519Z,30.13
2019-05-19T16:27:55.114Z,27.13
2019-05-19T16:30:31.139Z,34.73
2019-05-19T16:33:05.491Z,26.27
2019-05-19T16:35:40.023Z,13.57
2019-05-19T16:38:14.462Z,23.37
2019-05-19T16:40:50.431Z,34.67
2019-05-19T16:43:25.082Z,40.67
2019-05-19T16:46:00.988Z,42.30
2019-05-19T16:48:34.296Z,39.73
2019-05-19T16:51:08.912Z,21.40
2019-05-19T16:53:46.075Z,41.60
2019-05-19T16:56:30.757Z,29.77
2019-05-19T16:59:09.499Z,33.33
2019-05-19T17:01:43.139Z,30.17
2019-05-19T17:04:16.012Z,28.50
2019-05-19T17:06:49.186Z,21.40
2019-05-19T17:09:23.417Z,21.13
2019-05-19T17:11:55.838Z,22.67
2019-05-19T17:14:28.986Z,27.43
2019-05-19T17:17:01.796Z,19.70
2019-05-19T17:19:33.752Z,21.50
2019-05-19T17:22:07.842Z,22.00
2019-05-19T17:24:41.754Z,24.67
2019-05-19T17:27:14.462Z,24.97
2019-05-19T17:29:48.148Z,17.37
2019-05-19T17:32:21.734Z,19.40
2019-05-19T17:34:54.093Z,20.40
2019-05-19T17:37:28.323Z,21.23
2019-05-19T17:40:01.694Z,17.27
2019-05-19T17:42:39.891Z,19.53
2019-05-19T17:45:15.553Z,16.10
2019-05-19T17:47:49.016Z,17.20
2019-05-19T17:50:33.791Z,18.23
2019-05-19T17:53:07.975Z,25.07
2019-05-19T17:55:42.566Z,22.03
2019-05-19T17:58:15.613Z,23.13
2019-05-19T18:00:48.504Z,21.30
2019-05-19T18:03:20.417Z,21.30
2019-05-19T18:05:53.347Z,26.97
2019-05-19T18:08:26.143Z,21.00
2019-05-19T18:10:58.052Z,25.13
2019-05-19T18:13:31.048Z,27.07
2019-05-19T18:16:05.867Z,30.37
2019-05-19T18:18:40.287Z,28.23
2019-05-19T18:21:14.275Z,30.00
2019-05-19T18:23:46.967Z,32.50
2019-05-19T18:26:22.011Z,28.17
2019-05-19T18:28:54.915Z,28.70
2019-05-19T18:31:26.984Z,29.97
2019-05-19T18:34:00.069Z,24.67
2019-05-19T18:36:32.991Z,25.80
2019-05-19T18:39:08.259Z,30.60
2019-05-19T18:41:41.973Z,25.40
2019-05-19T18:44:15.887Z,27.63
2019-05-19T18:46:49.427Z,28.17
2019-05-19T18:49:23.194Z,29.37
2019-05-19T18:51:57.339Z,25.57
2019-05-19T18:54:30.621Z,29.10
2019-05-19T18:57:05.160Z,32.17
2019-05-19T18:59:46.769Z,35.93
2019-05-19T19:02:16.164Z,27.43
2019-05-19T19:04:50.798Z,28.23
2019-05-19T19:07:43.332Z,32.57
2019-05-19T19:10:16.897Z,24.37
2019-05-19T19:12:49.899Z,26.10
2019-05-19T19:15:24.322Z,24.30
2019-05-19T19:17:57.665Z,31.13
2019-05-19T19:20:32.484Z,33.73
2019-05-19T19:23:05.563Z,30.13
2019-05-19T19:25:39.851Z,25.00
2019-05-19T19:28:14.214Z,25.03
2019-05-19T19:30:50.979Z,30.17
2019-05-19T19:33:27.554Z,31.00
2019-05-19T19:36:02.079Z,29.33
2019-05-19T19:38:36.382Z,26.77
2019-05-19T19:41:10.628Z,24.30
2019-05-19T19:43:44.127Z,36.00
2019-05-19T19:46:17.191Z,30.37
2019-05-19T19:48:50.071Z,27.33
2019-05-19T19:51:23.617Z,33.27
2019-05-19T19:53:57.812Z,25.60
2019-05-19T19:56:30.642Z,22.27
2019-05-19T19:59:05.519Z,23.87
2019-05-19T20:01:38.689Z,24.23
2019-05-19T20:04:13.471Z,23.33
2019-05-19T20:06:46.881Z,29.10
2019-05-19T20:09:21.379Z,24.33
2019-05-19T20:11:54.375Z,22.37
2019-05-19T20:14:38.937Z,29.03
2019-05-19T20:17:20.449Z,25.33
2019-05-19T20:19:53.691Z,23.53
2019-05-19T20:22:27.876Z,26.37
2019-05-19T20:25:02.572Z,26.90
2019-05-19T20:27:36.806Z,23.73
2019-05-19T20:30:09.321Z,29.97
2019-05-19T20:32:44.123Z,27.50
2019-05-19T20:35:17.282Z,27.30
2019-05-19T20:37:51.363Z,25.43
2019-05-19T20:40:24.929Z,23.70
2019-05-19T20:42:57.371Z,22.33
2019-05-19T20:45:30.190Z,22.87
2019-05-19T20:48:04.244Z,24.60
2019-05-19T20:50:37.665Z,23.03
2019-05-19T20:53:10.864Z,26.00
2019-05-19T20:55:42.823Z,19.63
2019-05-19T20:58:15.440Z,27.33
2019-05-19T21:00:51.722Z,27.70
2019-05-19T21:03:24.555Z,29.73
2019-05-19T21:06:01.205Z,23.97
2019-05-19T21:08:32.894Z,21.33
2019-05-19T21:11:06.469Z,24.57
2019-05-19T21:13:50.124Z,23.20
2019-05-19T21:16:27.512Z,24.23
2019-05-19T21:19:08.717Z,23.37
2019-05-19T21:21:41.108Z,21.03
2019-05-19T21:24:13.236Z,23.63
2019-05-19T21:26:47.622Z,18.67
2019-05-19T21:29:21.312Z,20.33
2019-05-19T21:31:55.470Z,24.87
2019-05-19T21:34:27.690Z,20.83
2019-05-19T21:37:00.988Z,23.17
2019-05-19T21:39:32.805Z,23.30
2019-05-19T21:42:05.321Z,22.20
2019-05-19T21:44:38.352Z,20.87
2019-05-19T21:47:11.033Z,21.77
2019-05-19T21:49:46.953Z,21.67
2019-05-19T21:52:20.038Z,20.30
2019-05-19T21:54:53.061Z,21.97
2019-05-19T21:57:26.845Z,23.03
2019-05-19T22:00:00.852Z,23.20
2019-05-19T22:02:33.674Z,17.77
2019-05-19T22:05:07.337Z,19.57
2019-05-19T22:08:05.369Z,18.37
2019-05-19T22:10:38.645Z,20.87
2019-05-19T22:13:10.630Z,20.30
2019-05-19T22:15:42.623Z,20.77
2019-05-19T22:18:16.492Z,21.77
2019-05-19T22:20:49.669Z,21.53
2019-05-19T22:23:22.604Z,23.83
2019-05-19T22:25:55.092Z,24.00
2019-05-19T22:28:26.897Z,23.17
2019-05-19T22:30:59.644Z,20.73
2019-05-19T22:33:32.507Z,20.10
2019-05-19T22:36:06.299Z,25.77
2019-05-19T22:38:39.893Z,25.47
2019-05-19T22:41:12.766Z,25.87
2019-05-19T22:43:46.220Z,21.07
2019-05-19T22:46:19.789Z,22.20
2019-05-19T22:48:52.576Z,20.87
2019-05-19T22:51:27.454Z,23.07
2019-05-19T22:54:00.995Z,26.27
2019-05-19T22:56:33.398Z,26.97
2019-05-19T22:59:18.903Z,26.07
2019-05-19T23:01:51.340Z,22.40
2019-05-19T23:04:15.589Z,24.00
2019-05-19T23:06:49.199Z,25.47
2019-05-19T23:09:23.611Z,26.77
2019-05-19T23:11:56.279Z,24.33
2019-05-19T23:14:30.906Z,30.47
2019-05-19T23:17:03.323Z,24.13
2019-05-19T23:19:37.151Z,27.47
2019-05-19T23:22:10.786Z,25.57
2019-05-19T23:24:44.603Z,26.97
2019-05-19T23:27:17.483Z,27.30
2019-05-19T23:29:51.594Z,27.17
2019-05-19T23:32:24.933Z,24.13
2019-05-19T23:34:57.720Z,29.47
2019-05-19T23:37:34.282Z,25.77
2019-05-19T23:40:06.474Z,25.00
2019-05-19T23:42:38.848Z,29.40
2019-05-19T23:45:12.005Z,31.43
2019-05-19T23:47:44.538Z,27.23
2019-05-19T23:50:19.019Z,32.47
2019-05-19T23:52:51.586Z,26.83
2019-05-19T23:55:24.683Z,26.87
2019-05-19T23:57:57.278Z,28.50
